sensor_id;sensor_type;location;lat;lon;timestamp;pressure;altitude;pressure_sealevel;temperature;humidity
75681;BME280;64294;49.176;16.626;2023-03-11T00:00:14;97043.09;;;7.59;62.78
75681;BME280;64294;49.176;16.626;2023-03-11T00:02:46;97051.88;;;7.55;63.81
75681;BME280;64294;49.176;16.626;2023-03-11T00:05:15;97045.09;;;7.41;64.16
75681;BME280;64294;49.176;16.626;2023-03-11T00:07:41;97061.03;;;7.56;60.99
75681;BME280;64294;49.176;16.626;2023-03-11T00:10:08;97058.78;;;7.54;60.28
75681;BME280;64294;49.176;16.626;2023-03-11T00:12:37;97080.81;;;7.50;60.41
75681;BME280;64294;49.176;16.626;2023-03-11T00:15:03;97067.34;;;7.56;60.28
75681;BME280;64294;49.176;16.626;2023-03-11T00:17:28;97078.03;;;7.50;60.76
75681;BME280;64294;49.176;16.626;2023-03-11T00:19:54;97078.19;;;7.52;60.64
75681;BME280;64294;49.176;16.626;2023-03-11T00:22:19;97078.19;;;7.52;60.61
75681;BME280;64294;49.176;16.626;2023-03-11T00:24:45;97071.47;;;7.55;60.05
75681;BME280;64294;49.176;16.626;2023-03-11T00:27:10;97075.56;;;7.54;60.68
75681;BME280;64294;49.176;16.626;2023-03-11T00:29:35;97072.44;;;7.50;60.54
75681;BME280;64294;49.176;16.626;2023-03-11T00:32:01;97056.81;;;7.47;62.19
75681;BME280;64294;49.176;16.626;2023-03-11T00:34:26;97055.38;;;7.39;60.81
75681;BME280;64294;49.176;16.626;2023-03-11T00:36:52;97057.72;;;7.25;61.44
75681;BME280;64294;49.176;16.626;2023-03-11T00:39:17;97049.44;;;7.10;62.37
75681;BME280;64294;49.176;16.626;2023-03-11T00:41:43;97069.81;;;6.95;63.53
75681;BME280;64294;49.176;16.626;2023-03-11T00:44:08;97062.94;;;6.96;62.74
75681;BME280;64294;49.176;16.626;2023-03-11T00:46:33;97078.59;;;6.91;62.67
75681;BME280;64294;49.176;16.626;2023-03-11T00:48:59;97070.41;;;6.93;62.37
75681;BME280;64294;49.176;16.626;2023-03-11T00:51:24;97070.75;;;6.97;62.28
75681;BME280;64294;49.176;16.626;2023-03-11T00:53:50;97062.53;;;6.99;62.78
75681;BME280;64294;49.176;16.626;2023-03-11T00:56:15;97066.13;;;6.92;63.21
75681;BME280;64294;49.176;16.626;2023-03-11T00:58:42;97044.69;;;6.95;63.46
75681;BME280;64294;49.176;16.626;2023-03-11T01:01:14;97044.13;;;6.96;63.67
75681;BME280;64294;49.176;16.626;2023-03-11T01:03:41;97035.44;;;6.85;64.56
75681;BME280;64294;49.176;16.626;2023-03-11T01:06:06;97034.09;;;6.93;63.86
75681;BME280;64294;49.176;16.626;2023-03-11T01:08:32;97032.81;;;6.87;64.43
75681;BME280;64294;49.176;16.626;2023-03-11T01:10:58;97037.75;;;6.71;65.83
75681;BME280;64294;49.176;16.626;2023-03-11T01:13:24;97039.59;;;6.76;65.56
75681;BME280;64294;49.176;16.626;2023-03-11T01:15:51;97035.72;;;6.72;65.87
75681;BME280;64294;49.176;16.626;2023-03-11T01:18:16;97023.97;;;6.73;66.30
75681;BME280;64294;49.176;16.626;2023-03-11T01:20:42;97018.41;;;6.73;66.26
75681;BME280;64294;49.176;16.626;2023-03-11T01:23:08;97017.78;;;6.82;65.89
75681;BME280;64294;49.176;16.626;2023-03-11T01:25:34;97022.22;;;6.85;65.66
75681;BME280;64294;49.176;16.626;2023-03-11T01:28:00;97014.00;;;6.87;65.53
75681;BME280;64294;49.176;16.626;2023-03-11T01:30:27;97007.75;;;6.79;65.97
75681;BME280;64294;49.176;16.626;2023-03-11T01:32:53;97005.34;;;6.76;65.84
75681;BME280;64294;49.176;16.626;2023-03-11T01:35:21;97006.09;;;6.76;65.95
75681;BME280;64294;49.176;16.626;2023-03-11T01:37:47;97012.06;;;6.73;66.26
75681;BME280;64294;49.176;16.626;2023-03-11T01:40:25;97011.69;;;6.76;66.12
75681;BME280;64294;49.176;16.626;2023-03-11T01:42:52;97008.31;;;6.78;65.87
75681;BME280;64294;49.176;16.626;2023-03-11T01:45:33;97007.75;;;6.79;65.90
75681;BME280;64294;49.176;16.626;2023-03-11T01:48:01;97005.25;;;6.91;66.64
75681;BME280;64294;49.176;16.626;2023-03-11T01:50:32;97012.91;;;6.90;67.46
75681;BME280;64294;49.176;16.626;2023-03-11T01:52:58;97039.38;;;6.82;68.55
75681;BME280;64294;49.176;16.626;2023-03-11T01:55:24;97048.31;;;6.40;76.65
75681;BME280;64294;49.176;16.626;2023-03-11T01:57:50;97056.06;;;5.86;81.82
75681;BME280;64294;49.176;16.626;2023-03-11T02:00:16;97052.19;;;5.43;85.55
75681;BME280;64294;49.176;16.626;2023-03-11T02:02:48;97035.09;;;5.16;89.17
75681;BME280;64294;49.176;16.626;2023-03-11T02:05:16;97040.84;;;5.18;89.69
75681;BME280;64294;49.176;16.626;2023-03-11T02:07:42;97052.88;;;4.98;90.59
75681;BME280;64294;49.176;16.626;2023-03-11T02:10:08;97085.91;;;4.94;90.78
75681;BME280;64294;49.176;16.626;2023-03-11T02:12:36;97105.94;;;4.85;88.63
75681;BME280;64294;49.176;16.626;2023-03-11T02:15:03;97119.53;;;4.52;87.83
75681;BME280;64294;49.176;16.626;2023-03-11T02:17:30;97113.88;;;4.37;91.87
75681;BME280;64294;49.176;16.626;2023-03-11T02:20:17;97081.50;;;4.11;88.44
75681;BME280;64294;49.176;16.626;2023-03-11T02:22:43;97095.34;;;4.04;86.68
75681;BME280;64294;49.176;16.626;2023-03-11T02:25:29;97100.72;;;4.02;84.75
75681;BME280;64294;49.176;16.626;2023-03-11T02:28:00;97105.88;;;3.98;86.00
75681;BME280;64294;49.176;16.626;2023-03-11T02:30:26;97090.97;;;3.87;82.88
75681;BME280;64294;49.176;16.626;2023-03-11T02:32:53;97093.56;;;3.85;83.73
75681;BME280;64294;49.176;16.626;2023-03-11T02:35:20;97125.41;;;3.84;83.78
75681;BME280;64294;49.176;16.626;2023-03-11T02:37:47;97128.75;;;3.83;83.72
75681;BME280;64294;49.176;16.626;2023-03-11T02:42:53;97125.78;;;3.81;74.30
75681;BME280;64294;49.176;16.626;2023-03-11T02:45:23;97133.56;;;3.82;72.20
75681;BME280;64294;49.176;16.626;2023-03-11T02:47:51;97133.75;;;3.84;72.27
75681;BME280;64294;49.176;16.626;2023-03-11T02:50:19;97150.22;;;3.82;70.50
75681;BME280;64294;49.176;16.626;2023-03-11T02:52:48;97156.13;;;3.79;71.27
75681;BME280;64294;49.176;16.626;2023-03-11T02:55:15;97155.38;;;3.78;71.63
75681;BME280;64294;49.176;16.626;2023-03-11T02:57:42;97155.53;;;3.73;71.90
75681;BME280;64294;49.176;16.626;2023-03-11T03:00:09;97148.28;;;3.70;70.35
75681;BME280;64294;49.176;16.626;2023-03-11T03:02:36;97151.03;;;3.70;69.53
75681;BME280;64294;49.176;16.626;2023-03-11T03:05:02;97152.53;;;3.71;68.77
75681;BME280;64294;49.176;16.626;2023-03-11T03:07:27;97159.06;;;3.73;68.64
75681;BME280;64294;49.176;16.626;2023-03-11T03:09:53;97176.78;;;3.70;68.92
75681;BME280;64294;49.176;16.626;2023-03-11T03:12:18;97171.38;;;3.64;68.99
75681;BME280;64294;49.176;16.626;2023-03-11T03:14:44;97153.56;;;3.60;69.04
75681;BME280;64294;49.176;16.626;2023-03-11T03:17:09;97166.84;;;3.54;69.18
75681;BME280;64294;49.176;16.626;2023-03-11T03:19:35;97164.94;;;3.49;69.41
75681;BME280;64294;49.176;16.626;2023-03-11T03:22:00;97162.38;;;3.51;67.85
75681;BME280;64294;49.176;16.626;2023-03-11T03:24:26;97164.00;;;3.46;67.76
75681;BME280;64294;49.176;16.626;2023-03-11T03:26:51;97170.97;;;3.40;68.76
75681;BME280;64294;49.176;16.626;2023-03-11T03:29:16;97169.50;;;3.39;67.81
75681;BME280;64294;49.176;16.626;2023-03-11T03:31:42;97182.09;;;3.40;67.69
75681;BME280;64294;49.176;16.626;2023-03-11T03:34:07;97165.03;;;3.36;66.90
75681;BME280;64294;49.176;16.626;2023-03-11T03:36:34;97188.50;;;3.34;68.46
75681;BME280;64294;49.176;16.626;2023-03-11T03:39:00;97192.97;;;3.38;67.65
75681;BME280;64294;49.176;16.626;2023-03-11T03:41:26;97193.84;;;3.32;67.36
75681;BME280;64294;49.176;16.626;2023-03-11T03:43:52;97200.28;;;3.27;68.21
75681;BME280;64294;49.176;16.626;2023-03-11T03:46:19;97205.47;;;3.31;68.27
75681;BME280;64294;49.176;16.626;2023-03-11T03:48:45;97211.56;;;3.29;68.60
75681;BME280;64294;49.176;16.626;2023-03-11T03:51:11;97205.63;;;3.25;68.25
75681;BME280;64294;49.176;16.626;2023-03-11T03:53:38;97211.16;;;3.25;69.02
75681;BME280;64294;49.176;16.626;2023-03-11T03:56:04;97213.75;;;3.23;68.95
75681;BME280;64294;49.176;16.626;2023-03-11T03:58:30;97219.97;;;3.16;69.48
75681;BME280;64294;49.176;16.626;2023-03-11T04:00:56;97216.00;;;3.12;69.17
75681;BME280;64294;49.176;16.626;2023-03-11T04:03:23;97233.06;;;3.16;69.78
75681;BME280;64294;49.176;16.626;2023-03-11T04:05:49;97236.44;;;3.01;70.67
75681;BME280;64294;49.176;16.626;2023-03-11T04:08:14;97246.03;;;3.00;70.12
75681;BME280;64294;49.176;16.626;2023-03-11T04:10:40;97236.00;;;2.97;70.55
75681;BME280;64294;49.176;16.626;2023-03-11T04:13:05;97226.41;;;2.98;70.93
75681;BME280;64294;49.176;16.626;2023-03-11T04:15:31;97247.41;;;2.93;71.24
75681;BME280;64294;49.176;16.626;2023-03-11T04:17:56;97244.09;;;2.95;71.05
75681;BME280;64294;49.176;16.626;2023-03-11T04:20:21;97258.50;;;2.93;71.21
75681;BME280;64294;49.176;16.626;2023-03-11T04:22:47;97254.47;;;2.94;70.53
75681;BME280;64294;49.176;16.626;2023-03-11T04:25:12;97241.25;;;2.87;70.92
75681;BME280;64294;49.176;16.626;2023-03-11T04:27:38;97253.84;;;2.88;69.94
75681;BME280;64294;49.176;16.626;2023-03-11T04:30:07;97263.66;;;2.89;70.98
75681;BME280;64294;49.176;16.626;2023-03-11T04:32:33;97249.56;;;2.87;69.97
75681;BME280;64294;49.176;16.626;2023-03-11T04:34:58;97259.19;;;2.86;69.42
75681;BME280;64294;49.176;16.626;2023-03-11T04:37:27;97253.75;;;2.81;69.83
75681;BME280;64294;49.176;16.626;2023-03-11T04:39:52;97267.63;;;2.81;69.23
75681;BME280;64294;49.176;16.626;2023-03-11T04:42:18;97266.13;;;2.80;69.90
75681;BME280;64294;49.176;16.626;2023-03-11T04:44:43;97283.94;;;2.84;69.66
75681;BME280;64294;49.176;16.626;2023-03-11T04:47:09;97271.13;;;2.81;69.53
75681;BME280;64294;49.176;16.626;2023-03-11T04:49:34;97259.16;;;2.73;70.16
75681;BME280;64294;49.176;16.626;2023-03-11T04:51:59;97257.47;;;2.70;70.05
75681;BME280;64294;49.176;16.626;2023-03-11T04:54:25;97261.19;;;2.72;69.53
75681;BME280;64294;49.176;16.626;2023-03-11T04:56:50;97259.91;;;2.73;69.74
75681;BME280;64294;49.176;16.626;2023-03-11T04:59:16;97260.78;;;2.68;69.65
75681;BME280;64294;49.176;16.626;2023-03-11T05:01:41;97269.09;;;2.68;69.98
75681;BME280;64294;49.176;16.626;2023-03-11T05:04:07;97270.06;;;2.71;69.20
75681;BME280;64294;49.176;16.626;2023-03-11T05:06:32;97267.81;;;2.69;69.57
75681;BME280;64294;49.176;16.626;2023-03-11T05:08:57;97264.31;;;2.69;68.89
75681;BME280;64294;49.176;16.626;2023-03-11T05:11:23;97274.22;;;2.64;69.38
75681;BME280;64294;49.176;16.626;2023-03-11T05:13:49;97273.69;;;2.66;70.46
75681;BME280;64294;49.176;16.626;2023-03-11T05:16:14;97248.59;;;2.58;70.91
75681;BME280;64294;49.176;16.626;2023-03-11T05:18:40;97273.47;;;2.64;72.13
75681;BME280;64294;49.176;16.626;2023-03-11T05:21:05;97262.47;;;2.45;72.95
75681;BME280;64294;49.176;16.626;2023-03-11T05:23:30;97282.19;;;2.41;74.56
75681;BME280;64294;49.176;16.626;2023-03-11T05:25:56;97277.59;;;2.31;75.96
75681;BME280;64294;49.176;16.626;2023-03-11T05:28:21;97249.00;;;2.23;75.66
75681;BME280;64294;49.176;16.626;2023-03-11T05:30:47;97285.28;;;2.25;76.49
75681;BME280;64294;49.176;16.626;2023-03-11T05:33:12;97259.13;;;2.20;75.99
75681;BME280;64294;49.176;16.626;2023-03-11T05:35:38;97292.91;;;2.19;76.41
75681;BME280;64294;49.176;16.626;2023-03-11T05:38:03;97294.41;;;2.20;76.94
75681;BME280;64294;49.176;16.626;2023-03-11T05:40:28;97285.13;;;2.17;76.41
75681;BME280;64294;49.176;16.626;2023-03-11T05:42:54;97296.44;;;2.19;76.16
75681;BME280;64294;49.176;16.626;2023-03-11T05:45:19;97310.66;;;2.29;76.15
75681;BME280;64294;49.176;16.626;2023-03-11T05:47:45;97293.34;;;2.23;75.51
75681;BME280;64294;49.176;16.626;2023-03-11T05:50:11;97296.88;;;2.23;76.01
75681;BME280;64294;49.176;16.626;2023-03-11T05:52:36;97304.22;;;2.21;77.05
75681;BME280;64294;49.176;16.626;2023-03-11T05:55:02;97299.34;;;2.27;76.57
75681;BME280;64294;49.176;16.626;2023-03-11T05:57:28;97279.00;;;2.37;76.73
75681;BME280;64294;49.176;16.626;2023-03-11T05:59:53;97292.41;;;2.33;76.83
75681;BME280;64294;49.176;16.626;2023-03-11T06:02:19;97302.53;;;2.31;77.58
75681;BME280;64294;49.176;16.626;2023-03-11T06:04:45;97303.00;;;2.48;84.54
75681;BME280;64294;49.176;16.626;2023-03-11T06:07:12;97317.50;;;2.54;79.34
75681;BME280;64294;49.176;16.626;2023-03-11T06:09:39;97309.97;;;2.23;78.28
75681;BME280;64294;49.176;16.626;2023-03-11T06:12:05;97300.78;;;2.15;79.06
75681;BME280;64294;49.176;16.626;2023-03-11T06:14:30;97306.13;;;2.12;79.22
75681;BME280;64294;49.176;16.626;2023-03-11T06:16:57;97308.25;;;2.06;80.38
75681;BME280;64294;49.176;16.626;2023-03-11T06:19:24;97320.38;;;2.03;80.96
75681;BME280;64294;49.176;16.626;2023-03-11T06:21:49;97319.63;;;2.03;80.26
75681;BME280;64294;49.176;16.626;2023-03-11T06:24:14;97328.59;;;2.09;80.82
75681;BME280;64294;49.176;16.626;2023-03-11T06:26:40;97326.16;;;2.05;80.69
75681;BME280;64294;49.176;16.626;2023-03-11T06:29:10;97327.41;;;2.04;80.39
75681;BME280;64294;49.176;16.626;2023-03-11T06:31:36;97341.25;;;2.04;81.01
75681;BME280;64294;49.176;16.626;2023-03-11T06:34:04;97338.78;;;2.01;80.89
75681;BME280;64294;49.176;16.626;2023-03-11T06:36:30;97346.59;;;1.83;81.41
75681;BME280;64294;49.176;16.626;2023-03-11T06:38:56;97354.00;;;1.94;81.49
75681;BME280;64294;49.176;16.626;2023-03-11T06:41:21;97349.59;;;1.86;81.16
75681;BME280;64294;49.176;16.626;2023-03-11T06:43:47;97368.91;;;1.91;80.42
75681;BME280;64294;49.176;16.626;2023-03-11T06:46:18;97368.38;;;1.93;79.75
75681;BME280;64294;49.176;16.626;2023-03-11T06:48:45;97374.91;;;1.95;80.31
75681;BME280;64294;49.176;16.626;2023-03-11T06:51:11;97376.63;;;1.98;79.35
75681;BME280;64294;49.176;16.626;2023-03-11T06:53:37;97377.53;;;1.88;80.10
75681;BME280;64294;49.176;16.626;2023-03-11T06:56:08;97382.56;;;1.89;80.43
75681;BME280;64294;49.176;16.626;2023-03-11T06:58:35;97403.22;;;1.88;79.95
75681;BME280;64294;49.176;16.626;2023-03-11T07:03:29;97416.16;;;1.80;81.64
75681;BME280;64294;49.176;16.626;2023-03-11T07:05:56;97414.28;;;1.88;81.29
75681;BME280;64294;49.176;16.626;2023-03-11T07:08:21;97422.38;;;1.86;81.42
75681;BME280;64294;49.176;16.626;2023-03-11T07:11:01;97430.63;;;1.92;80.42
75681;BME280;64294;49.176;16.626;2023-03-11T07:13:28;97436.59;;;1.96;80.50
75681;BME280;64294;49.176;16.626;2023-03-11T07:18:29;97445.56;;;2.02;80.45
75681;BME280;64294;49.176;16.626;2023-03-11T07:20:55;97459.19;;;2.19;79.56
75681;BME280;64294;49.176;16.626;2023-03-11T07:23:20;97463.31;;;2.31;79.02
75681;BME280;64294;49.176;16.626;2023-03-11T07:25:46;97429.53;;;2.32;78.12
75681;BME280;64294;49.176;16.626;2023-03-11T07:28:12;97458.53;;;2.31;78.21
75681;BME280;64294;49.176;16.626;2023-03-11T07:30:38;97451.97;;;2.48;76.19
75681;BME280;64294;49.176;16.626;2023-03-11T07:33:03;97447.41;;;2.50;76.42
75681;BME280;64294;49.176;16.626;2023-03-11T07:35:29;97449.44;;;2.50;75.98
75681;BME280;64294;49.176;16.626;2023-03-11T07:37:54;97459.16;;;2.56;75.54
75681;BME280;64294;49.176;16.626;2023-03-11T07:40:19;97464.03;;;2.50;74.33
75681;BME280;64294;49.176;16.626;2023-03-11T07:42:45;97467.53;;;2.69;73.84
75681;BME280;64294;49.176;16.626;2023-03-11T07:45:10;97468.38;;;2.64;73.27
75681;BME280;64294;49.176;16.626;2023-03-11T07:47:36;97464.34;;;2.79;71.85
75681;BME280;64294;49.176;16.626;2023-03-11T07:50:01;97469.28;;;2.86;71.75
75681;BME280;64294;49.176;16.626;2023-03-11T07:52:30;97471.25;;;3.04;70.91
75681;BME280;64294;49.176;16.626;2023-03-11T07:54:56;97466.97;;;3.03;69.43
75681;BME280;64294;49.176;16.626;2023-03-11T07:57:22;97484.22;;;2.96;68.35
75681;BME280;64294;49.176;16.626;2023-03-11T07:59:47;97490.09;;;2.92;68.32
75681;BME280;64294;49.176;16.626;2023-03-11T08:02:12;97516.72;;;3.01;68.56
75681;BME280;64294;49.176;16.626;2023-03-11T08:04:38;97517.41;;;3.20;67.27
75681;BME280;64294;49.176;16.626;2023-03-11T08:07:03;97514.19;;;3.29;67.06
75681;BME280;64294;49.176;16.626;2023-03-11T08:09:29;97521.78;;;3.29;65.37
75681;BME280;64294;49.176;16.626;2023-03-11T08:11:54;97523.38;;;3.24;65.88
75681;BME280;64294;49.176;16.626;2023-03-11T08:14:20;97519.97;;;3.31;66.16
75681;BME280;64294;49.176;16.626;2023-03-11T08:16:45;97534.38;;;3.30;65.50
75681;BME280;64294;49.176;16.626;2023-03-11T08:19:12;97543.34;;;3.23;65.20
75681;BME280;64294;49.176;16.626;2023-03-11T08:21:37;97559.28;;;3.36;64.42
75681;BME280;64294;49.176;16.626;2023-03-11T08:24:03;97584.34;;;3.30;65.03
75681;BME280;64294;49.176;16.626;2023-03-11T08:26:29;97571.91;;;3.50;64.41
75681;BME280;64294;49.176;16.626;2023-03-11T08:28:56;97585.50;;;3.53;64.55
75681;BME280;64294;49.176;16.626;2023-03-11T08:31:24;97584.44;;;3.56;63.86
75681;BME280;64294;49.176;16.626;2023-03-11T08:33:53;97606.06;;;3.45;63.94
75681;BME280;64294;49.176;16.626;2023-03-11T08:36:19;97602.44;;;3.50;64.04
75681;BME280;64294;49.176;16.626;2023-03-11T08:38:45;97618.97;;;3.74;63.99
75681;BME280;64294;49.176;16.626;2023-03-11T08:41:10;97604.31;;;3.60;63.36
75681;BME280;64294;49.176;16.626;2023-03-11T08:43:35;97625.34;;;3.69;63.18
75681;BME280;64294;49.176;16.626;2023-03-11T08:46:02;97639.09;;;3.48;63.09
75681;BME280;64294;49.176;16.626;2023-03-11T08:48:28;97631.88;;;3.58;62.63
75681;BME280;64294;49.176;16.626;2023-03-11T08:50:54;97645.00;;;3.71;62.35
75681;BME280;64294;49.176;16.626;2023-03-11T08:53:20;97648.72;;;4.06;61.31
75681;BME280;64294;49.176;16.626;2023-03-11T08:55:46;97663.88;;;3.91;60.65
75681;BME280;64294;49.176;16.626;2023-03-11T08:58:11;97660.38;;;3.91;60.85
75681;BME280;64294;49.176;16.626;2023-03-11T09:00:37;97670.13;;;4.11;61.35
75681;BME280;64294;49.176;16.626;2023-03-11T09:03:02;97680.38;;;4.16;59.48
75681;BME280;64294;49.176;16.626;2023-03-11T09:05:27;97683.78;;;4.09;60.58
75681;BME280;64294;49.176;16.626;2023-03-11T09:07:53;97676.25;;;3.77;59.94
75681;BME280;64294;49.176;16.626;2023-03-11T09:10:18;97703.03;;;3.61;61.21
75681;BME280;64294;49.176;16.626;2023-03-11T09:12:44;97704.75;;;3.64;61.14
75681;BME280;64294;49.176;16.626;2023-03-11T09:15:09;97721.84;;;3.69;61.49
75681;BME280;64294;49.176;16.626;2023-03-11T09:17:35;97721.31;;;3.70;61.47
75681;BME280;64294;49.176;16.626;2023-03-11T09:20:01;97723.91;;;3.49;61.57
75681;BME280;64294;49.176;16.626;2023-03-11T09:22:27;97730.00;;;3.48;62.24
75681;BME280;64294;49.176;16.626;2023-03-11T09:24:55;97750.94;;;3.49;61.66
75681;BME280;64294;49.176;16.626;2023-03-11T09:27:24;97749.28;;;3.59;62.27
75681;BME280;64294;49.176;16.626;2023-03-11T09:29:49;97750.91;;;3.68;62.33
75681;BME280;64294;49.176;16.626;2023-03-11T09:32:15;97758.50;;;3.48;62.67
75681;BME280;64294;49.176;16.626;2023-03-11T09:34:40;97766.19;;;3.42;63.15
75681;BME280;64294;49.176;16.626;2023-03-11T09:37:06;97766.78;;;3.35;62.61
75681;BME280;64294;49.176;16.626;2023-03-11T09:39:32;97774.34;;;3.34;62.54
75681;BME280;64294;49.176;16.626;2023-03-11T09:42:01;97775.56;;;3.58;62.28
75681;BME280;64294;49.176;16.626;2023-03-11T09:44:45;97793.66;;;3.46;62.48
75681;BME280;64294;49.176;16.626;2023-03-11T09:50:32;97803.19;;;3.50;62.38
75681;BME280;64294;49.176;16.626;2023-03-11T09:55:42;97821.50;;;3.40;63.41
75681;BME280;64294;49.176;16.626;2023-03-11T09:58:11;97831.53;;;3.24;63.86
75681;BME280;64294;49.176;16.626;2023-03-11T10:00:38;97845.19;;;3.22;64.16
75681;BME280;64294;49.176;16.626;2023-03-11T10:03:12;97849.06;;;3.14;64.62
75681;BME280;64294;49.176;16.626;2023-03-11T10:05:41;97860.63;;;2.99;65.48
75681;BME280;64294;49.176;16.626;2023-03-11T10:08:26;97858.16;;;2.90;66.33
75681;BME280;64294;49.176;16.626;2023-03-11T10:11:12;97860.25;;;3.08;66.75
75681;BME280;64294;49.176;16.626;2023-03-11T10:13:48;97864.94;;;3.19;65.69
75681;BME280;64294;49.176;16.626;2023-03-11T10:16:24;97863.47;;;3.37;65.37
75681;BME280;64294;49.176;16.626;2023-03-11T10:26:35;97880.19;;;3.50;63.62
75681;BME280;64294;49.176;16.626;2023-03-11T10:32:23;97899.19;;;3.46;63.19
75681;BME280;64294;49.176;16.626;2023-03-11T10:35:22;97897.00;;;3.39;62.98
75681;BME280;64294;49.176;16.626;2023-03-11T10:37:53;97911.59;;;3.20;63.21
75681;BME280;64294;49.176;16.626;2023-03-11T10:40:29;97927.22;;;3.23;63.57
75681;BME280;64294;49.176;16.626;2023-03-11T10:42:58;97942.31;;;3.28;63.38
75681;BME280;64294;49.176;16.626;2023-03-11T10:45:27;97941.31;;;3.25;62.68
75681;BME280;64294;49.176;16.626;2023-03-11T10:47:57;97933.09;;;3.14;62.83
75681;BME280;64294;49.176;16.626;2023-03-11T10:50:22;97946.22;;;3.14;61.82
75681;BME280;64294;49.176;16.626;2023-03-11T10:53:09;97935.66;;;3.37;61.51
75681;BME280;64294;49.176;16.626;2023-03-11T10:55:44;97959.00;;;3.47;61.06
75681;BME280;64294;49.176;16.626;2023-03-11T10:58:13;97944.75;;;3.37;61.17
75681;BME280;64294;49.176;16.626;2023-03-11T11:00:39;97953.19;;;3.69;60.29
75681;BME280;64294;49.176;16.626;2023-03-11T11:03:14;97951.19;;;3.88;59.79
75681;BME280;64294;49.176;16.626;2023-03-11T11:05:42;97957.44;;;3.94;59.20
75681;BME280;64294;49.176;16.626;2023-03-11T11:08:13;97943.13;;;4.41;57.48
75681;BME280;64294;49.176;16.626;2023-03-11T11:10:54;97971.34;;;4.32;58.26
75681;BME280;64294;49.176;16.626;2023-03-11T11:13:25;97960.53;;;4.61;57.16
75681;BME280;64294;49.176;16.626;2023-03-11T11:16:16;97969.34;;;4.65;56.05
75681;BME280;64294;49.176;16.626;2023-03-11T11:18:47;97961.75;;;4.65;55.96
75681;BME280;64294;49.176;16.626;2023-03-11T11:21:16;97984.94;;;4.54;55.98
75681;BME280;64294;49.176;16.626;2023-03-11T11:26:36;97978.16;;;4.69;58.29
75681;BME280;64294;49.176;16.626;2023-03-11T11:29:12;97978.22;;;4.95;55.44
75681;BME280;64294;49.176;16.626;2023-03-11T11:31:45;97991.56;;;4.51;57.21
75681;BME280;64294;49.176;16.626;2023-03-11T11:34:27;97989.50;;;5.03;56.67
75681;BME280;64294;49.176;16.626;2023-03-11T11:36:55;98001.13;;;5.01;56.46
75681;BME280;64294;49.176;16.626;2023-03-11T11:39:25;98005.00;;;4.98;56.88
75681;BME280;64294;49.176;16.626;2023-03-11T11:41:51;98013.44;;;4.93;56.07
75681;BME280;64294;49.176;16.626;2023-03-11T11:44:20;98000.78;;;4.60;55.81
75681;BME280;64294;49.176;16.626;2023-03-11T11:46:56;98008.59;;;4.61;56.43
75681;BME280;64294;49.176;16.626;2023-03-11T11:49:27;98016.47;;;4.76;55.72
75681;BME280;64294;49.176;16.626;2023-03-11T11:54:41;98018.63;;;5.60;53.52
75681;BME280;64294;49.176;16.626;2023-03-11T11:57:13;98025.78;;;5.42;52.48
75681;BME280;64294;49.176;16.626;2023-03-11T11:59:39;98013.31;;;4.85;52.46
75681;BME280;64294;49.176;16.626;2023-03-11T12:05:34;98017.09;;;5.46;51.92
75681;BME280;64294;49.176;16.626;2023-03-11T12:08:19;98012.53;;;6.01;50.25
75681;BME280;64294;49.176;16.626;2023-03-11T12:10:57;98023.06;;;5.37;51.35
75681;BME280;64294;49.176;16.626;2023-03-11T12:14:03;98029.41;;;5.24;52.07
75681;BME280;64294;49.176;16.626;2023-03-11T12:19:16;98042.38;;;4.71;54.49
75681;BME280;64294;49.176;16.626;2023-03-11T12:27:00;98046.13;;;4.54;56.40
75681;BME280;64294;49.176;16.626;2023-03-11T12:29:34;98050.16;;;3.97;62.30
75681;BME280;64294;49.176;16.626;2023-03-11T12:32:03;98052.78;;;3.65;68.56
75681;BME280;64294;49.176;16.626;2023-03-11T12:34:33;98063.84;;;3.11;73.54
75681;BME280;64294;49.176;16.626;2023-03-11T12:37:00;98059.69;;;3.28;76.97
75681;BME280;64294;49.176;16.626;2023-03-11T12:39:31;98055.03;;;3.42;77.98
75681;BME280;64294;49.176;16.626;2023-03-11T12:44:36;98082.41;;;3.81;72.18
75681;BME280;64294;49.176;16.626;2023-03-11T12:47:22;98077.78;;;3.89;71.93
75681;BME280;64294;49.176;16.626;2023-03-11T12:49:53;98079.53;;;3.92;71.58
75681;BME280;64294;49.176;16.626;2023-03-11T12:52:22;98081.81;;;3.88;71.63
75681;BME280;64294;49.176;16.626;2023-03-11T13:08:19;98068.81;;;6.13;57.76
75681;BME280;64294;49.176;16.626;2023-03-11T13:10:47;98091.25;;;6.81;55.40
75681;BME280;64294;49.176;16.626;2023-03-11T13:15:54;98088.88;;;6.12;52.72
75681;BME280;64294;49.176;16.626;2023-03-11T13:20:58;98111.78;;;5.33;53.87
75681;BME280;64294;49.176;16.626;2023-03-11T13:23:29;98088.53;;;5.62;52.70
75681;BME280;64294;49.176;16.626;2023-03-11T13:34:33;98125.66;;;5.84;53.10
75681;BME280;64294;49.176;16.626;2023-03-11T13:37:32;98122.34;;;5.40;53.09
75681;BME280;64294;49.176;16.626;2023-03-11T13:40:31;98116.56;;;5.51;52.21
75681;BME280;64294;49.176;16.626;2023-03-11T13:43:04;98132.53;;;5.18;53.21
75681;BME280;64294;49.176;16.626;2023-03-11T13:45:35;98143.75;;;4.94;52.82
75681;BME280;64294;49.176;16.626;2023-03-11T13:48:27;98143.31;;;4.90;53.14
75681;BME280;64294;49.176;16.626;2023-03-11T13:51:06;98144.97;;;4.99;53.56
75681;BME280;64294;49.176;16.626;2023-03-11T13:56:27;98155.00;;;5.71;51.75
75681;BME280;64294;49.176;16.626;2023-03-11T13:59:19;98161.25;;;5.77;50.58
75681;BME280;64294;49.176;16.626;2023-03-11T14:01:53;98162.72;;;5.97;49.66
75681;BME280;64294;49.176;16.626;2023-03-11T14:04:30;98174.31;;;6.54;48.27
75681;BME280;64294;49.176;16.626;2023-03-11T14:06:57;98175.28;;;6.44;48.62
75681;BME280;64294;49.176;16.626;2023-03-11T14:09:25;98182.25;;;6.50;49.17
75681;BME280;64294;49.176;16.626;2023-03-11T14:11:53;98180.00;;;6.88;47.97
75681;BME280;64294;49.176;16.626;2023-03-11T14:16:59;98190.63;;;6.50;49.30
75681;BME280;64294;49.176;16.626;2023-03-11T14:19:28;98190.72;;;6.05;49.36
75681;BME280;64294;49.176;16.626;2023-03-11T14:21:53;98200.34;;;5.72;50.92